Cape Cod — WBK3243 — position and weather

sailwx.info

Track history (hours):
 
Tides and Currents Weather Stations Pressure Air Temp Water Temp Dewpoint Dewpoint Depression Visibility Wind Speed Wind Dir Waves Ship Positions

Cape Cod

Owner: MORAN TOWING CORPORATION, New Canaan, CT. More information available from US FCC via Universal Licensing System and Coast Guard Vessel Documentation Center.

Last reported at 2015-May-25 10:33 UTC. Time now 2015-May-25 11:33 UTC.
Position N 39°53' W 075°11'.

Length 33 m; draft 4.8 m.

Type: Tug. MMSI: 366939770.

Date/timePositionNaut miles runAvg speedWind from/ knotsBaromVisibWave heightAir tempDewpointWater temp
2015-May-25 10:33N 39°53' W 075°11'0 0.0
2015-May-25 09:33N 39°53' W 075°11'0 0.0
2015-May-25 08:33N 39°53' W 075°11'0 0.0
2015-May-25 07:33N 39°53' W 075°11'0 0.0
2015-May-25 06:33N 39°53' W 075°11'0 0.0
2015-May-25 05:33N 39°53' W 075°11'0 0.0
2015-May-25 04:33N 39°53' W 075°11'0 0.0
2015-May-25 03:33N 39°53' W 075°11'0 0.0
2015-May-25 02:33N 39°53' W 075°11'0 0.0
2015-May-25 01:33N 39°53' W 075°11'0 0.0
2015-May-25 00:33N 39°53' W 075°11'0 0.0
2015-May-24 23:33N 39°53' W 075°11'0 0.0
2015-May-24 22:33N 39°53' W 075°11'0 0.0
2015-May-24 21:33N 39°53' W 075°11'0 0.0
2015-May-24 20:33N 39°53' W 075°11'0 0.0
2015-May-24 19:33N 39°53' W 075°11'0 0.0
2015-May-24 18:33N 39°53' W 075°11'0 0.0
2015-May-24 17:33N 39°53' W 075°11'0 0.0
2015-May-24 16:33N 39°53' W 075°11'0 0.0
2015-May-24 15:33N 39°53' W 075°11'5 4.8
2015-May-24 14:33N 39°51' W 075°16'0 0.2
2015-May-24 13:33N 39°51' W 075°16'5 4.9
2015-May-24 12:33N 39°53' W 075°11'0 0.0
2015-May-24 11:33N 39°53' W 075°11'0 0.0
2015-May-24 10:33N 39°53' W 075°11'0 0.0
2015-May-24 09:33N 39°53' W 075°11'0 0.0
2015-May-24 08:33N 39°53' W 075°11'0 0.0
2015-May-24 07:33N 39°53' W 075°11'0 0.0
2015-May-24 06:33N 39°53' W 075°11'0 0.0
2015-May-24 05:33N 39°53' W 075°11'0 0.0
2015-May-24 04:33N 39°53' W 075°11'2 1.7
2015-May-24 03:33N 39°53' W 075°08'1010.1
2015-May-24 02:33N 40°01' W 075°00'1310.4
2015-May-24 01:17N 40°08' W 074°46'6 2.0
2015-May-23 22:31N 40°05' W 074°52'8 8.6
2015-May-23 21:34N 40°01' W 075°01'7 7.1
2015-May-23 20:33N 39°57' W 075°08'3 2.9
2015-May-23 19:33N 39°59' W 075°06'0 0.1
2015-May-23 18:33N 39°59' W 075°06'6 5.7
2015-May-23 17:34N 39°53' W 075°08'7 6.6
2015-May-23 16:33N 39°51' W 075°16'0 0.1
2015-May-23 15:34N 39°51' W 075°16'2 1.9
2015-May-23 14:31N 39°51' W 075°19'7 6.9
2015-May-23 13:33N 39°53' W 075°11'0 0.0
2015-May-23 12:33N 39°53' W 075°11'0 0.0
2015-May-23 11:33N 39°53' W 075°11'0 0.0
2015-May-23 10:33N 39°53' W 075°11'0 0.0
2015-May-23 09:34N 39°53' W 075°11'0 0.0
2015-May-23 08:33N 39°53' W 075°11'1 0.8
2015-May-23 07:33N 39°53' W 075°10'0 0.4
2015-May-23 06:33N 39°53' W 075°10'0 0.4
2015-May-23 05:33N 39°53' W 075°11'0 0.0
2015-May-23 04:33N 39°53' W 075°11'0 0.0
2015-May-23 03:33N 39°53' W 075°11'0 0.0
2015-May-23 02:33N 39°53' W 075°11'8 7.7
2015-May-23 01:32N 39°51' W 075°20'0 0.1
2015-May-23 00:33N 39°51' W 075°20'0 0.0
2015-May-22 23:33N 39°51' W 075°20'5 5.5
2015-May-22 22:33N 39°52' W 075°13'3 2.5
2015-May-22 21:33N 39°53' W 075°11'0 0.0
2015-May-22 20:33N 39°53' W 075°11'0 0.0
2015-May-22 19:33N 39°53' W 075°11'3 2.7
2015-May-22 18:33N 39°55' W 075°08'4 4.2
2015-May-22 17:33N 39°59' W 075°06'4 3.9
2015-May-22 16:33N 39°55' W 075°08'3 3.0
2015-May-22 15:33N 39°53' W 075°11'0 0.0
2015-May-22 14:33N 39°53' W 075°11'0 0.0
2015-May-22 13:34N 39°53' W 075°11'0 0.0
2015-May-22 12:33N 39°53' W 075°11'0 0.0
2015-May-22 11:33N 39°53' W 075°11'0 0.0
2015-May-22 10:33N 39°53' W 075°11'0 0.0
2015-May-22 09:34N 39°53' W 075°11'0 0.0
2015-May-22 08:33N 39°53' W 075°11'0 0.0
2015-May-22 07:33N 39°53' W 075°11'0 0.3
2015-May-22 06:34N 39°53' W 075°10'2 1.8
2015-May-22 05:33N 39°54' W 075°08'4 4.1
2015-May-22 04:33N 39°52' W 075°13'2 2.2
2015-May-22 03:33N 39°53' W 075°11'0 0.0
2015-May-22 02:33N 39°53' W 075°11'0 0.0
2015-May-22 01:33N 39°53' W 075°11'0 0.0
2015-May-22 00:33N 39°53' W 075°11'0 0.0
2015-May-21 23:33N 39°53' W 075°11'4 3.8
2015-May-21 22:33N 39°51' W 075°15'1510.8
2015-May-21 21:12N 39°43' W 075°30'711.5
2015-May-21 20:33N 39°36' W 075°34'1212.1
2015-May-21 19:33N 39°24' W 075°30'1313.4
2015-May-21 18:33N 39°14' W 075°19'1413.1
2015-May-21 17:29N 39°02' W 075°09'3 2.2
2015-May-21 16:20N 39°05' W 075°11'6 8.2
2015-May-21 15:33N 39°10' W 075°15'8 7.6
2015-May-21 14:33N 39°16' W 075°21'9 8.7
2015-May-21 13:33N 39°23' W 075°28'9 9.4
2015-May-21 12:33N 39°31' W 075°33'10 9.9
2015-May-21 11:33N 39°41' W 075°31'1110.6
2015-May-21 10:34N 39°49' W 075°23'10 9.6
2015-May-21 09:33N 39°53' W 075°11'7 6.6
2015-May-21 08:33N 39°58' W 075°06'0 0.4
2015-May-21 07:33N 39°58' W 075°07'6 5.7
2015-May-21 06:33N 39°53' W 075°09'0 0.0
2015-May-21 05:33N 39°53' W 075°09'1 1.2
2015-May-21 04:33N 39°53' W 075°11'0 0.0
2015-May-21 03:33N 39°53' W 075°11'2 2.3
2015-May-21 02:33N 39°54' W 075°08'0 0.4
2015-May-21 01:33N 39°54' W 075°08'3 3.4
2015-May-21 00:33N 39°52' W 075°12'2 1.5
2015-May-20 23:33N 39°53' W 075°11'0 0.0
2015-May-20 22:33N 39°53' W 075°11'0 0.0
2015-May-20 21:33N 39°53' W 075°11'0 0.0
2015-May-20 20:33N 39°53' W 075°11'5 4.8
2015-May-20 19:33N 39°51' W 075°16'1312.8
2015-May-20 18:33N 39°44' W 075°30'10 9.8
2015-May-20 17:33N 39°35' W 075°36'0 0.4
2015-May-20 16:33N 39°35' W 075°35'1 0.5
2015-May-20 15:33N 39°35' W 075°36'4 4.2
2015-May-20 14:33N 39°39' W 075°33'9 8.9
2015-May-20 13:33N 39°47' W 075°28'10 9.8
2015-May-20 12:33N 39°51' W 075°16'8 8.4
2015-May-20 11:33N 39°57' W 075°08'10 9.8
2015-May-20 10:33N 40°03' W 074°58'11 1.8
2015-May-20 04:06N 40°08' W 074°45'0 0.0
2015-May-20 03:33N 40°08' W 074°45'7 2.3
2015-May-20 00:32N 40°05' W 074°53'10 9.8
2015-May-19 23:33N 39°60' W 075°04'5 5.2
2015-May-19 22:33N 39°56' W 075°08'0 0.0
2015-May-19 21:33N 39°56' W 075°08'2 2.4
2015-May-19 20:33N 39°58' W 075°07'1 1.2
2015-May-19 19:33N 39°57' W 075°08'5 4.8
2015-May-19 18:33N 39°53' W 075°11'0 0.0
2015-May-19 17:33N 39°53' W 075°11'2 1.7
2015-May-19 16:33N 39°53' W 075°08'6 5.7
2015-May-19 15:33N 39°59' W 075°06'2 2.4
2015-May-19 14:33N 39°57' W 075°08'0 0.4
2015-May-19 13:33N 39°57' W 075°08'4 4.0
2015-May-19 12:33N 39°53' W 075°11'0 0.0
2015-May-19 11:33N 39°53' W 075°11'0 0.0
2015-May-19 10:33N 39°53' W 075°11'0 0.0
2015-May-19 09:33N 39°53' W 075°11'0 0.0
2015-May-19 08:33N 39°53' W 075°11'4 3.6
2015-May-19 07:33N 39°56' W 075°08'8 8.1
2015-May-19 06:33N 40°02' W 075°00'8 8.2
2015-May-19 05:32N 40°06' W 074°51'1 0.3
2015-May-19 03:32N 40°05' W 074°52'1212.5
2015-May-19 02:33N 39°59' W 075°05'7 6.9
2015-May-19 01:33N 39°53' W 075°11'0 0.0
2015-May-19 00:33N 39°53' W 075°11'0 0.0
2015-May-18 23:33N 39°53' W 075°11'3 3.0
2015-May-18 22:33N 39°51' W 075°14'3 2.6
2015-May-18 21:33N 39°53' W 075°11'1 0.6
2015-May-18 20:33N 39°53' W 075°10'2 2.0
2015-May-18 19:33N 39°54' W 075°08'2 2.1
2015-May-18 18:33N 39°53' W 075°11'0 0.0
2015-May-18 17:33N 39°53' W 075°11'0 0.0
2015-May-18 16:33N 39°53' W 075°11'0 0.0
2015-May-18 15:33N 39°53' W 075°11'0 0.0
2015-May-18 14:33N 39°53' W 075°11'0 0.0
2015-May-18 13:33N 39°53' W 075°11'1 0.8
2015-May-18 12:33N 39°54' W 075°12'6 6.4
2015-May-18 11:33N 39°58' W 075°06'1110.7
2015-May-18 10:32N 40°04' W 074°54'8 6.3
2015-May-18 09:17N 40°08' W 074°45'4 4.2
2015-May-18 08:25N 40°07' W 074°50'8 8.8
2015-May-18 07:33N 40°03' W 074°58'10 9.8
2015-May-18 06:33N 39°57' W 075°08'4 4.2
2015-May-18 05:33N 39°53' W 075°11'0 0.0
2015-May-18 04:33N 39°53' W 075°11'0 0.0
2015-May-18 03:33N 39°53' W 075°11'0 0.0
2015-May-18 02:33N 39°53' W 075°11'0 0.0
2015-May-18 01:33N 39°53' W 075°11'0 0.0
2015-May-18 00:33N 39°53' W 075°11'0 0.0
2015-May-17 23:33N 39°53' W 075°11'0 0.0
2015-May-17 22:33N 39°53' W 075°11'0 0.0
2015-May-17 21:33N 39°53' W 075°11'0 0.0
2015-May-17 20:33N 39°53' W 075°11'0 0.0
2015-May-17 19:33N 39°53' W 075°11'2 1.8
2015-May-17 18:33N 39°53' W 075°08'1 0.7
2015-May-17 17:33N 39°53' W 075°09'1 1.3
2015-May-17 16:33N 39°53' W 075°11'0 0.0
2015-May-17 15:33N 39°53' W 075°11'0 0.0
2015-May-17 14:33N 39°53' W 075°11'7 6.5
2015-May-17 13:33N 39°59' W 075°06'0 0.3
2015-May-17 12:33N 39°59' W 075°05'0 0.0
2015-May-17 11:33N 39°59' W 075°05'0 0.0
2015-May-17 10:33N 39°59' W 075°05'1111.0
2015-May-17 09:33N 40°05' W 074°53'4 3.4
2015-May-17 08:15N 40°08' W 074°49'0 0.0
2015-May-17 07:33N 40°08' W 074°49'1 0.7
2015-May-17 06:28N 40°07' W 074°50'5 5.7
2015-May-17 05:33N 40°04' W 074°56'8 8.0
2015-May-17 04:33N 39°59' W 075°04'4 4.2
2015-May-17 03:33N 39°57' W 075°08'4 4.0
2015-May-17 02:33N 39°53' W 075°11'0 0.0
2015-May-17 01:33N 39°53' W 075°11'0 0.0
2015-May-17 00:33N 39°53' W 075°11'0 0.0
2015-May-16 23:33N 39°53' W 075°11'0 0.0
2015-May-16 22:33N 39°53' W 075°11'0 0.0
2015-May-16 21:33N 39°53' W 075°11'0 0.0
2015-May-16 20:33N 39°53' W 075°11'0 0.0
2015-May-16 19:33N 39°53' W 075°11'0 0.0
2015-May-16 18:33N 39°53' W 075°11'0 0.0
2015-May-16 17:33N 39°53' W 075°11'0 0.0
2015-May-16 16:33N 39°53' W 075°11'0 0.0
2015-May-16 15:33N 39°53' W 075°11'0 0.0
2015-May-16 14:33N 39°53' W 075°11'0 0.0
2015-May-16 13:33N 39°53' W 075°11'0 0.0
2015-May-16 12:33N 39°53' W 075°11'0 0.0
2015-May-16 11:33N 39°53' W 075°11'0 0.0
2015-May-16 10:33N 39°53' W 075°11'0 0.0
2015-May-16 09:33N 39°53' W 075°11'0 0.0
2015-May-16 08:33N 39°53' W 075°11'0 0.0
2015-May-16 07:33N 39°53' W 075°11'4 3.6
2015-May-16 06:33N 39°56' W 075°08'9 9.3
2015-May-16 05:34N 40°02' W 074°59'8 7.0
2015-May-16 04:24N 40°07' W 074°50'0 0.0
2015-May-16 03:23N 40°07' W 074°50'2 2.1
2015-May-16 02:30N 40°05' W 074°52'1010.5
2015-May-16 01:34N 40°01' W 075°03'10 9.5
2015-May-16 00:34N 39°53' W 075°10'0 0.2
2015-May-15 23:34N 39°53' W 075°11'0 0.0
2015-May-15 22:34N 39°53' W 075°11'0 0.0
2015-May-15 21:34N 39°53' W 075°11'0 0.0
2015-May-15 20:34N 39°53' W 075°11'0 0.0
2015-May-15 19:34N 39°53' W 075°11'0 0.0
2015-May-15 18:34N 39°53' W 075°11'0 0.0
2015-May-15 17:33N 39°53' W 075°11'0 0.0
2015-May-15 16:34N 39°53' W 075°11'0 0.0
2015-May-15 15:33N 39°53' W 075°11'3 2.6
2015-May-15 14:34N 39°52' W 075°13'1212.0
2015-May-15 13:33N 39°47' W 075°28'1212.1
2015-May-15 12:34N 39°36' W 075°34'1413.9
2015-May-15 11:34N 39°23' W 075°28'  
Track history (hours):
 
Tides and Currents Weather Stations Pressure Air Temp Water Temp Dewpoint Dewpoint Depression Visibility Wind Speed Wind Dir Waves Ship Positions

Cape Cod

Owner: MORAN TOWING CORPORATION, New Canaan, CT. More information available from US FCC via Universal Licensing System and Coast Guard Vessel Documentation Center.

Last reported at 2015-May-25 10:33 UTC. Time now 2015-May-25 11:33 UTC.
Position N 39°53' W 075°11'.

Length 33 m; draft 4.8 m.

Type: Tug. MMSI: 366939770.

Date/timePositionNaut miles runAvg speedWind from/ knotsBaromVisibWave heightAir tempDewpointWater temp
2015-May-25 10:33N 39°53' W 075°11'0 0.0
2015-May-25 09:33N 39°53' W 075°11'0 0.0
2015-May-25 08:33N 39°53' W 075°11'0 0.0
2015-May-25 07:33N 39°53' W 075°11'0 0.0
2015-May-25 06:33N 39°53' W 075°11'0 0.0
2015-May-25 05:33N 39°53' W 075°11'0 0.0
2015-May-25 04:33N 39°53' W 075°11'0 0.0
2015-May-25 03:33N 39°53' W 075°11'0 0.0
2015-May-25 02:33N 39°53' W 075°11'0 0.0
2015-May-25 01:33N 39°53' W 075°11'0 0.0
2015-May-25 00:33N 39°53' W 075°11'0 0.0
2015-May-24 23:33N 39°53' W 075°11'0 0.0
2015-May-24 22:33N 39°53' W 075°11'0 0.0
2015-May-24 21:33N 39°53' W 075°11'0 0.0
2015-May-24 20:33N 39°53' W 075°11'0 0.0
2015-May-24 19:33N 39°53' W 075°11'0 0.0
2015-May-24 18:33N 39°53' W 075°11'0 0.0
2015-May-24 17:33N 39°53' W 075°11'0 0.0
2015-May-24 16:33N 39°53' W 075°11'0 0.0
2015-May-24 15:33N 39°53' W 075°11'5 4.8
2015-May-24 14:33N 39°51' W 075°16'0 0.2
2015-May-24 13:33N 39°51' W 075°16'5 4.9
2015-May-24 12:33N 39°53' W 075°11'0 0.0
2015-May-24 11:33N 39°53' W 075°11'0 0.0
2015-May-24 10:33N 39°53' W 075°11'0 0.0
2015-May-24 09:33N 39°53' W 075°11'0 0.0
2015-May-24 08:33N 39°53' W 075°11'0 0.0
2015-May-24 07:33N 39°53' W 075°11'0 0.0
2015-May-24 06:33N 39°53' W 075°11'0 0.0
2015-May-24 05:33N 39°53' W 075°11'0 0.0
2015-May-24 04:33N 39°53' W 075°11'2 1.7
2015-May-24 03:33N 39°53' W 075°08'1010.1
2015-May-24 02:33N 40°01' W 075°00'1310.4
2015-May-24 01:17N 40°08' W 074°46'6 2.0
2015-May-23 22:31N 40°05' W 074°52'8 8.6
2015-May-23 21:34N 40°01' W 075°01'7 7.1
2015-May-23 20:33N 39°57' W 075°08'3 2.9
2015-May-23 19:33N 39°59' W 075°06'0 0.1
2015-May-23 18:33N 39°59' W 075°06'6 5.7
2015-May-23 17:34N 39°53' W 075°08'7 6.6
2015-May-23 16:33N 39°51' W 075°16'0 0.1
2015-May-23 15:34N 39°51' W 075°16'2 1.9
2015-May-23 14:31N 39°51' W 075°19'7 6.9
2015-May-23 13:33N 39°53' W 075°11'0 0.0
2015-May-23 12:33N 39°53' W 075°11'0 0.0
2015-May-23 11:33N 39°53' W 075°11'0 0.0
2015-May-23 10:33N 39°53' W 075°11'0 0.0
2015-May-23 09:34N 39°53' W 075°11'0 0.0
2015-May-23 08:33N 39°53' W 075°11'1 0.8
2015-May-23 07:33N 39°53' W 075°10'0 0.4
2015-May-23 06:33N 39°53' W 075°10'0 0.4
2015-May-23 05:33N 39°53' W 075°11'0 0.0
2015-May-23 04:33N 39°53' W 075°11'0 0.0
2015-May-23 03:33N 39°53' W 075°11'0 0.0
2015-May-23 02:33N 39°53' W 075°11'8 7.7
2015-May-23 01:32N 39°51' W 075°20'0 0.1
2015-May-23 00:33N 39°51' W 075°20'0 0.0
2015-May-22 23:33N 39°51' W 075°20'5 5.5
2015-May-22 22:33N 39°52' W 075°13'3 2.5
2015-May-22 21:33N 39°53' W 075°11'0 0.0
2015-May-22 20:33N 39°53' W 075°11'0 0.0
2015-May-22 19:33N 39°53' W 075°11'3 2.7
2015-May-22 18:33N 39°55' W 075°08'4 4.2
2015-May-22 17:33N 39°59' W 075°06'4 3.9
2015-May-22 16:33N 39°55' W 075°08'3 3.0
2015-May-22 15:33N 39°53' W 075°11'0 0.0
2015-May-22 14:33N 39°53' W 075°11'0 0.0
2015-May-22 13:34N 39°53' W 075°11'0 0.0
2015-May-22 12:33N 39°53' W 075°11'0 0.0
2015-May-22 11:33N 39°53' W 075°11'0 0.0
2015-May-22 10:33N 39°53' W 075°11'0 0.0
2015-May-22 09:34N 39°53' W 075°11'0 0.0
2015-May-22 08:33N 39°53' W 075°11'0 0.0
2015-May-22 07:33N 39°53' W 075°11'0 0.3
2015-May-22 06:34N 39°53' W 075°10'2 1.8
2015-May-22 05:33N 39°54' W 075°08'4 4.1
2015-May-22 04:33N 39°52' W 075°13'2 2.2
2015-May-22 03:33N 39°53' W 075°11'0 0.0
2015-May-22 02:33N 39°53' W 075°11'0 0.0
2015-May-22 01:33N 39°53' W 075°11'0 0.0
2015-May-22 00:33N 39°53' W 075°11'0 0.0
2015-May-21 23:33N 39°53' W 075°11'4 3.8
2015-May-21 22:33N 39°51' W 075°15'1510.8
2015-May-21 21:12N 39°43' W 075°30'711.5
2015-May-21 20:33N 39°36' W 075°34'1212.1
2015-May-21 19:33N 39°24' W 075°30'1313.4
2015-May-21 18:33N 39°14' W 075°19'1413.1
2015-May-21 17:29N 39°02' W 075°09'3 2.2
2015-May-21 16:20N 39°05' W 075°11'6 8.2
2015-May-21 15:33N 39°10' W 075°15'8 7.6
2015-May-21 14:33N 39°16' W 075°21'9 8.7
2015-May-21 13:33N 39°23' W 075°28'9 9.4
2015-May-21 12:33N 39°31' W 075°33'10 9.9
2015-May-21 11:33N 39°41' W 075°31'1110.6
2015-May-21 10:34N 39°49' W 075°23'10 9.6
2015-May-21 09:33N 39°53' W 075°11'7 6.6
2015-May-21 08:33N 39°58' W 075°06'0 0.4
2015-May-21 07:33N 39°58' W 075°07'6 5.7
2015-May-21 06:33N 39°53' W 075°09'0 0.0
2015-May-21 05:33N 39°53' W 075°09'1 1.2
2015-May-21 04:33N 39°53' W 075°11'0 0.0
2015-May-21 03:33N 39°53' W 075°11'2 2.3
2015-May-21 02:33N 39°54' W 075°08'0 0.4
2015-May-21 01:33N 39°54' W 075°08'3 3.4
2015-May-21 00:33N 39°52' W 075°12'2 1.5
2015-May-20 23:33N 39°53' W 075°11'0 0.0
2015-May-20 22:33N 39°53' W 075°11'0 0.0
2015-May-20 21:33N 39°53' W 075°11'0 0.0
2015-May-20 20:33N 39°53' W 075°11'5 4.8
2015-May-20 19:33N 39°51' W 075°16'1312.8
2015-May-20 18:33N 39°44' W 075°30'10 9.8
2015-May-20 17:33N 39°35' W 075°36'0 0.4
2015-May-20 16:33N 39°35' W 075°35'1 0.5
2015-May-20 15:33N 39°35' W 075°36'4 4.2
2015-May-20 14:33N 39°39' W 075°33'9 8.9
2015-May-20 13:33N 39°47' W 075°28'10 9.8
2015-May-20 12:33N 39°51' W 075°16'8 8.4
2015-May-20 11:33N 39°57' W 075°08'10 9.8
2015-May-20 10:33N 40°03' W 074°58'11 1.8
2015-May-20 04:06N 40°08' W 074°45'0 0.0
2015-May-20 03:33N 40°08' W 074°45'7 2.3
2015-May-20 00:32N 40°05' W 074°53'10 9.8
2015-May-19 23:33N 39°60' W 075°04'5 5.2
2015-May-19 22:33N 39°56' W 075°08'0 0.0
2015-May-19 21:33N 39°56' W 075°08'2 2.4
2015-May-19 20:33N 39°58' W 075°07'1 1.2
2015-May-19 19:33N 39°57' W 075°08'5 4.8
2015-May-19 18:33N 39°53' W 075°11'0 0.0
2015-May-19 17:33N 39°53' W 075°11'2 1.7
2015-May-19 16:33N 39°53' W 075°08'6 5.7
2015-May-19 15:33N 39°59' W 075°06'2 2.4
2015-May-19 14:33N 39°57' W 075°08'0 0.4
2015-May-19 13:33N 39°57' W 075°08'4 4.0
2015-May-19 12:33N 39°53' W 075°11'0 0.0
2015-May-19 11:33N 39°53' W 075°11'0 0.0
2015-May-19 10:33N 39°53' W 075°11'0 0.0
2015-May-19 09:33N 39°53' W 075°11'0 0.0
2015-May-19 08:33N 39°53' W 075°11'4 3.6
2015-May-19 07:33N 39°56' W 075°08'8 8.1
2015-May-19 06:33N 40°02' W 075°00'8 8.2
2015-May-19 05:32N 40°06' W 074°51'1 0.3
2015-May-19 03:32N 40°05' W 074°52'1212.5
2015-May-19 02:33N 39°59' W 075°05'7 6.9
2015-May-19 01:33N 39°53' W 075°11'0 0.0
2015-May-19 00:33N 39°53' W 075°11'0 0.0
2015-May-18 23:33N 39°53' W 075°11'3 3.0
2015-May-18 22:33N 39°51' W 075°14'3 2.6
2015-May-18 21:33N 39°53' W 075°11'1 0.6
2015-May-18 20:33N 39°53' W 075°10'2 2.0
2015-May-18 19:33N 39°54' W 075°08'2 2.1
2015-May-18 18:33N 39°53' W 075°11'0 0.0
2015-May-18 17:33N 39°53' W 075°11'0 0.0
2015-May-18 16:33N 39°53' W 075°11'0 0.0
2015-May-18 15:33N 39°53' W 075°11'0 0.0
2015-May-18 14:33N 39°53' W 075°11'0 0.0
2015-May-18 13:33N 39°53' W 075°11'1 0.8
2015-May-18 12:33N 39°54' W 075°12'6 6.4
2015-May-18 11:33N 39°58' W 075°06'1110.7
2015-May-18 10:32N 40°04' W 074°54'8 6.3
2015-May-18 09:17N 40°08' W 074°45'4 4.2
2015-May-18 08:25N 40°07' W 074°50'8 8.8
2015-May-18 07:33N 40°03' W 074°58'10 9.8
2015-May-18 06:33N 39°57' W 075°08'4 4.2
2015-May-18 05:33N 39°53' W 075°11'0 0.0
2015-May-18 04:33N 39°53' W 075°11'0 0.0
2015-May-18 03:33N 39°53' W 075°11'0 0.0
2015-May-18 02:33N 39°53' W 075°11'0 0.0
2015-May-18 01:33N 39°53' W 075°11'0 0.0
2015-May-18 00:33N 39°53' W 075°11'0 0.0
2015-May-17 23:33N 39°53' W 075°11'0 0.0
2015-May-17 22:33N 39°53' W 075°11'0 0.0
2015-May-17 21:33N 39°53' W 075°11'0 0.0
2015-May-17 20:33N 39°53' W 075°11'0 0.0
2015-May-17 19:33N 39°53' W 075°11'2 1.8
2015-May-17 18:33N 39°53' W 075°08'1 0.7
2015-May-17 17:33N 39°53' W 075°09'1 1.3
2015-May-17 16:33N 39°53' W 075°11'0 0.0
2015-May-17 15:33N 39°53' W 075°11'0 0.0
2015-May-17 14:33N 39°53' W 075°11'7 6.5
2015-May-17 13:33N 39°59' W 075°06'0 0.3
2015-May-17 12:33N 39°59' W 075°05'0 0.0
2015-May-17 11:33N 39°59' W 075°05'0 0.0
2015-May-17 10:33N 39°59' W 075°05'1111.0
2015-May-17 09:33N 40°05' W 074°53'4 3.4
2015-May-17 08:15N 40°08' W 074°49'0 0.0
2015-May-17 07:33N 40°08' W 074°49'1 0.7
2015-May-17 06:28N 40°07' W 074°50'5 5.7
2015-May-17 05:33N 40°04' W 074°56'8 8.0
2015-May-17 04:33N 39°59' W 075°04'4 4.2
2015-May-17 03:33N 39°57' W 075°08'4 4.0
2015-May-17 02:33N 39°53' W 075°11'0 0.0
2015-May-17 01:33N 39°53' W 075°11'0 0.0
2015-May-17 00:33N 39°53' W 075°11'0 0.0
2015-May-16 23:33N 39°53' W 075°11'0 0.0
2015-May-16 22:33N 39°53' W 075°11'0 0.0
2015-May-16 21:33N 39°53' W 075°11'0 0.0
2015-May-16 20:33N 39°53' W 075°11'0 0.0
2015-May-16 19:33N 39°53' W 075°11'0 0.0
2015-May-16 18:33N 39°53' W 075°11'0 0.0
2015-May-16 17:33N 39°53' W 075°11'0 0.0
2015-May-16 16:33N 39°53' W 075°11'0 0.0
2015-May-16 15:33N 39°53' W 075°11'0 0.0
2015-May-16 14:33N 39°53' W 075°11'0 0.0
2015-May-16 13:33N 39°53' W 075°11'0 0.0
2015-May-16 12:33N 39°53' W 075°11'0 0.0
2015-May-16 11:33N 39°53' W 075°11'0 0.0
2015-May-16 10:33N 39°53' W 075°11'0 0.0
2015-May-16 09:33N 39°53' W 075°11'0 0.0
2015-May-16 08:33N 39°53' W 075°11'0 0.0
2015-May-16 07:33N 39°53' W 075°11'4 3.6
2015-May-16 06:33N 39°56' W 075°08'9 9.3
2015-May-16 05:34N 40°02' W 074°59'8 7.0
2015-May-16 04:24N 40°07' W 074°50'0 0.0
2015-May-16 03:23N 40°07' W 074°50'2 2.1
2015-May-16 02:30N 40°05' W 074°52'1010.5
2015-May-16 01:34N 40°01' W 075°03'10 9.5
2015-May-16 00:34N 39°53' W 075°10'0 0.2
2015-May-15 23:34N 39°53' W 075°11'0 0.0
2015-May-15 22:34N 39°53' W 075°11'0 0.0
2015-May-15 21:34N 39°53' W 075°11'0 0.0
2015-May-15 20:34N 39°53' W 075°11'0 0.0
2015-May-15 19:34N 39°53' W 075°11'0 0.0
2015-May-15 18:34N 39°53' W 075°11'0 0.0
2015-May-15 17:33N 39°53' W 075°11'0 0.0
2015-May-15 16:34N 39°53' W 075°11'0 0.0
2015-May-15 15:33N 39°53' W 075°11'3 2.6
2015-May-15 14:34N 39°52' W 075°13'1212.0
2015-May-15 13:33N 39°47' W 075°28'1212.1
2015-May-15 12:34N 39°36' W 075°34'1413.9
2015-May-15 11:34N 39°23' W 075°28'  

Dump ship's entire track history